createdAt,value
2022-11-26T00:00:45.868Z,49.60
2022-11-26T00:03:13.197Z,49.45
2022-11-26T00:05:40.886Z,46.60
2022-11-26T00:08:24.437Z,43.85
2022-11-26T00:10:52.159Z,45.00
2022-11-26T00:13:23.882Z,51.10
2022-11-26T00:15:50.704Z,49.95
2022-11-26T00:18:17.797Z,41.75
2022-11-26T00:20:44.818Z,47.03
2022-11-26T00:23:24.504Z,44.58
2022-11-26T00:25:59.117Z,46.22
2022-11-26T00:28:25.909Z,40.80
2022-11-26T00:30:53.375Z,40.28
2022-11-26T00:33:20.078Z,38.85
2022-11-26T00:35:46.950Z,39.88
2022-11-26T00:38:16.654Z,43.00
2022-11-26T00:40:43.326Z,38.47
2022-11-26T00:43:12.328Z,37.55
2022-11-26T00:45:39.115Z,31.55
2022-11-26T00:48:06.074Z,42.03
2022-11-26T00:50:37.536Z,33.30
2022-11-26T00:53:04.184Z,42.30
2022-11-26T00:55:38.293Z,37.65
2022-11-26T00:58:05.613Z,43.50
2022-11-26T01:00:33.848Z,37.88
2022-11-26T01:03:00.840Z,39.20
2022-11-26T01:05:31.852Z,38.60
2022-11-26T01:08:00.180Z,36.70
2022-11-26T01:10:28.406Z,39.00
2022-11-26T01:12:55.195Z,42.28
2022-11-26T01:15:23.180Z,37.88
2022-11-26T01:17:50.029Z,40.58
2022-11-26T01:20:27.806Z,34.97
2022-11-26T01:22:55.190Z,37.45
2022-11-26T01:25:22.407Z,30.38
2022-11-26T01:27:49.682Z,39.20
2022-11-26T01:30:19.480Z,33.67
2022-11-26T01:32:46.480Z,34.72
2022-11-26T01:35:13.176Z,38.80
2022-11-26T01:37:39.809Z,33.72
2022-11-26T01:40:25.318Z,35.45
2022-11-26T01:43:13.667Z,33.15
2022-11-26T01:45:40.334Z,35.38
2022-11-26T01:48:22.791Z,37.85
2022-11-26T01:51:08.906Z,37.90
2022-11-26T01:53:55.122Z,38.15
2022-11-26T01:56:30.162Z,39.58
2022-11-26T01:59:12.492Z,31.02
2022-11-26T02:01:39.249Z,32.72
2022-11-26T02:04:23.865Z,35.28
2022-11-26T02:06:50.968Z,101.72
2022-11-26T02:09:17.930Z,55.65
2022-11-26T02:11:45.331Z,60.00
2022-11-26T02:14:21.883Z,72.55
2022-11-26T02:16:54.438Z,79.35
2022-11-26T02:19:59.695Z,54.22
2022-11-26T02:22:52.120Z,154.02
2022-11-26T02:25:21.723Z,41.42
2022-11-26T02:28:12.984Z,83.68
2022-11-26T02:31:01.822Z,52.88
2022-11-26T02:33:54.016Z,54.17
2022-11-26T02:36:27.941Z,27.45
2022-11-26T02:38:54.613Z,24.02
2022-11-26T02:41:21.658Z,19.98
2022-11-26T02:43:48.708Z,30.25
2022-11-26T02:46:17.497Z,27.33
2022-11-26T02:48:46.230Z,29.05
2022-11-26T02:51:23.502Z,29.58
2022-11-26T02:53:50.387Z,27.27
2022-11-26T02:56:24.636Z,28.92
2022-11-26T02:58:51.949Z,27.63
2022-11-26T03:01:46.805Z,51.90
2022-11-26T03:04:17.679Z,98.70
2022-11-26T03:06:44.797Z,159.90
2022-11-26T03:09:11.462Z,85.53
2022-11-26T03:11:38.553Z,151.25
2022-11-26T03:14:05.860Z,148.85
2022-11-26T03:16:32.583Z,105.88
2022-11-26T03:18:59.677Z,67.38
2022-11-26T03:21:26.722Z,63.58
2022-11-26T03:23:53.401Z,68.00
2022-11-26T03:26:20.119Z,62.05
2022-11-26T03:28:46.801Z,54.05
2022-11-26T03:31:13.704Z,51.88
2022-11-26T03:33:40.360Z,75.28
2022-11-26T03:36:07.655Z,62.55
2022-11-26T03:38:43.651Z,80.88
2022-11-26T03:41:10.357Z,95.57
2022-11-26T03:43:37.003Z,119.75
2022-11-26T03:46:03.711Z,92.57
2022-11-26T03:48:30.849Z,94.20
2022-11-26T03:50:57.487Z,92.32
2022-11-26T03:53:24.170Z,107.13
2022-11-26T03:55:51.269Z,81.75
2022-11-26T03:58:17.884Z,86.18
2022-11-26T04:00:44.623Z,102.18
2022-11-26T04:03:11.338Z,84.50
2022-11-26T04:05:38.664Z,45.03
2022-11-26T04:08:05.357Z,82.40
2022-11-26T04:10:31.950Z,51.40
2022-11-26T04:12:58.552Z,49.38
2022-11-26T04:15:25.250Z,37.85
2022-11-26T04:17:52.302Z,66.70
2022-11-26T04:20:18.980Z,71.05
2022-11-26T04:22:46.050Z,56.92
2022-11-26T04:25:12.672Z,61.15
2022-11-26T04:27:39.743Z,92.65
2022-11-26T04:30:07.703Z,114.07
2022-11-26T04:32:34.773Z,52.13
2022-11-26T04:35:01.444Z,89.70
2022-11-26T04:37:28.067Z,91.88
2022-11-26T04:39:55.094Z,73.22
2022-11-26T04:42:21.727Z,82.35
2022-11-26T04:44:48.388Z,54.38
2022-11-26T04:47:15.036Z,72.90
2022-11-26T04:49:42.100Z,43.42
2022-11-26T04:52:08.697Z,45.45
2022-11-26T04:54:35.412Z,40.47
2022-11-26T04:57:02.786Z,59.60
2022-11-26T04:59:29.511Z,68.82
2022-11-26T05:01:56.197Z,57.67
2022-11-26T05:04:23.268Z,38.55
2022-11-26T05:06:49.979Z,41.00
2022-11-26T05:09:16.671Z,69.38
2022-11-26T05:11:43.298Z,57.28
2022-11-26T05:14:10.317Z,84.82
2022-11-26T05:16:37.004Z,111.03
2022-11-26T05:19:03.670Z,84.55
2022-11-26T05:21:30.752Z,97.82
2022-11-26T05:23:57.367Z,61.95
2022-11-26T05:26:23.973Z,93.45
2022-11-26T05:28:50.612Z,100.55
2022-11-26T05:31:17.829Z,116.05
2022-11-26T05:33:44.489Z,99.85
2022-11-26T05:36:11.170Z,78.68
2022-11-26T05:38:37.845Z,73.85
2022-11-26T05:41:04.881Z,64.10
2022-11-26T05:43:31.583Z,68.10
2022-11-26T05:46:06.605Z,75.65
2022-11-26T05:48:33.798Z,51.08
2022-11-26T05:51:00.774Z,54.42
2022-11-26T05:53:27.531Z,39.72
2022-11-26T05:55:54.213Z,60.20
2022-11-26T05:58:20.907Z,44.53
2022-11-26T06:00:47.580Z,33.53
2022-11-26T06:03:19.866Z,60.65
2022-11-26T06:05:47.252Z,54.33
2022-11-26T06:08:13.882Z,44.97
2022-11-26T06:10:42.679Z,22.75
2022-11-26T06:13:09.291Z,18.75
2022-11-26T06:15:35.970Z,29.23
2022-11-26T06:18:03.110Z,27.17
2022-11-26T06:20:30.151Z,23.98
2022-11-26T06:22:56.765Z,23.05
2022-11-26T06:25:23.790Z,32.95
2022-11-26T06:27:52.172Z,29.08
2022-11-26T06:30:18.842Z,31.90
2022-11-26T06:32:45.491Z,29.67
2022-11-26T06:35:12.619Z,32.72
2022-11-26T06:37:39.294Z,25.23
2022-11-26T06:40:06.668Z,31.88
2022-11-26T06:42:33.300Z,37.15
2022-11-26T06:45:00.327Z,33.13
2022-11-26T06:47:27.709Z,55.92
2022-11-26T06:49:54.392Z,37.13
2022-11-26T06:52:21.427Z,44.13
2022-11-26T06:54:49.215Z,40.28
2022-11-26T06:57:16.229Z,53.80
2022-11-26T06:59:42.874Z,75.07
2022-11-26T07:02:10.247Z,85.07
2022-11-26T07:04:37.274Z,70.80
2022-11-26T07:07:04.533Z,92.97
2022-11-26T07:09:31.846Z,92.07
2022-11-26T07:11:58.939Z,102.25
2022-11-26T07:14:25.665Z,84.68
2022-11-26T07:16:52.393Z,61.25
2022-11-26T07:19:19.432Z,63.05
2022-11-26T07:21:46.086Z,97.15
2022-11-26T07:24:12.685Z,97.82
2022-11-26T07:26:39.294Z,98.75
2022-11-26T07:29:05.999Z,97.90
2022-11-26T07:31:32.842Z,65.63
2022-11-26T07:33:59.539Z,97.47
2022-11-26T07:36:27.251Z,94.88
2022-11-26T07:38:54.923Z,89.15
2022-11-26T07:41:21.999Z,85.30
2022-11-26T07:43:48.708Z,87.32
2022-11-26T07:46:17.007Z,106.43
2022-11-26T07:48:43.896Z,74.13
2022-11-26T07:51:37.096Z,71.25
2022-11-26T07:54:04.913Z,73.95
2022-11-26T07:56:31.604Z,77.88
2022-11-26T07:58:58.240Z,89.65
2022-11-26T08:01:27.513Z,72.90
2022-11-26T08:03:54.216Z,72.10
2022-11-26T08:06:22.799Z,74.03
2022-11-26T08:08:49.423Z,67.00
2022-11-26T08:11:20.803Z,90.78
2022-11-26T08:13:47.580Z,83.03
2022-11-26T08:16:14.319Z,82.05
2022-11-26T08:18:41.144Z,80.90
2022-11-26T08:21:07.827Z,84.60
2022-11-26T08:23:34.588Z,65.38
2022-11-26T08:26:33.957Z,90.57
2022-11-26T08:28:59.076Z,101.03
2022-11-26T08:31:27.771Z,66.55
2022-11-26T08:33:58.803Z,82.65
2022-11-26T08:36:26.303Z,62.85
2022-11-26T08:38:52.938Z,63.42
2022-11-26T08:41:19.758Z,83.88
2022-11-26T08:46:33.129Z,91.50
2022-11-26T08:48:59.871Z,51.00
2022-11-26T08:51:26.651Z,50.42
2022-11-26T08:53:53.375Z,66.05
2022-11-26T08:56:20.104Z,73.50
2022-11-26T08:58:48.594Z,64.28
2022-11-26T09:01:17.250Z,74.45
2022-11-26T09:03:44.105Z,54.63
2022-11-26T09:06:10.787Z,73.57
2022-11-26T09:08:56.240Z,65.50
2022-11-26T09:11:23.770Z,40.55
2022-11-26T09:13:50.426Z,60.33
2022-11-26T09:16:17.100Z,51.88
2022-11-26T09:18:43.860Z,42.75
2022-11-26T09:21:10.530Z,72.60
2022-11-26T09:23:37.228Z,55.10
2022-11-26T09:26:03.857Z,45.65
2022-11-26T09:28:30.511Z,60.17
2022-11-26T09:30:58.230Z,50.30
2022-11-26T09:33:25.070Z,35.58
2022-11-26T09:35:51.700Z,35.28
2022-11-26T09:38:18.359Z,29.92
2022-11-26T09:40:54.084Z,30.25
2022-11-26T09:43:27.590Z,32.42
2022-11-26T09:45:56.040Z,29.23
2022-11-26T09:48:23.421Z,32.75
2022-11-26T09:50:50.033Z,33.15
2022-11-26T09:53:27.964Z,29.27
2022-11-26T09:55:55.764Z,28.98
2022-11-26T09:58:27.944Z,33.38
2022-11-26T10:00:59.074Z,30.05
2022-11-26T10:03:36.704Z,29.73
2022-11-26T10:06:28.370Z,63.55
2022-11-26T10:09:12.791Z,43.15
2022-11-26T10:12:25.061Z,80.43
2022-11-26T10:14:58.385Z,56.40
2022-11-26T10:17:43.462Z,39.10
2022-11-26T10:20:50.775Z,39.35
2022-11-26T10:23:31.097Z,60.40
2022-11-26T10:26:10.673Z,130.13
2022-11-26T10:28:45.419Z,43.13
2022-11-26T10:31:26.444Z,40.35
2022-11-26T10:33:54.680Z,40.15
2022-11-26T10:36:42.016Z,48.10
2022-11-26T10:39:12.846Z,87.80
2022-11-26T10:41:39.567Z,39.33
2022-11-26T10:44:28.225Z,49.20
2022-11-26T10:46:54.941Z,39.13
2022-11-26T10:49:26.441Z,93.45
2022-11-26T10:52:00.494Z,38.13
2022-11-26T10:54:28.277Z,70.90
2022-11-26T10:56:55.307Z,43.40
2022-11-26T10:59:36.441Z,31.80
2022-11-26T11:02:30.234Z,31.67
2022-11-26T11:04:57.946Z,51.38
2022-11-26T11:07:41.111Z,43.38
2022-11-26T11:10:11.754Z,44.22
2022-11-26T11:15:24.978Z,35.60
2022-11-26T11:18:02.555Z,31.95
2022-11-26T11:20:36.397Z,49.92
2022-11-26T11:23:10.484Z,35.33
2022-11-26T11:25:44.785Z,46.83
2022-11-26T11:28:20.625Z,35.00
2022-11-26T11:30:47.445Z,31.48
2022-11-26T11:33:22.660Z,32.97
2022-11-26T11:36:15.303Z,40.35
2022-11-26T11:38:53.121Z,36.20
2022-11-26T11:41:28.668Z,33.95
2022-11-26T11:44:17.061Z,42.10
2022-11-26T11:47:05.266Z,27.98
2022-11-26T11:49:34.981Z,31.08
2022-11-26T11:52:34.544Z,30.80
2022-11-26T11:55:10.931Z,27.02
2022-11-26T11:58:18.890Z,26.33
2022-11-26T12:01:20.093Z,16.85
2022-11-26T12:04:08.911Z,21.60
2022-11-26T12:07:00.373Z,18.85
2022-11-26T12:09:48.629Z,23.60
2022-11-26T12:12:29.097Z,23.20
2022-11-26T12:14:58.482Z,25.67
2022-11-26T12:17:36.690Z,26.75
2022-11-26T12:20:07.105Z,27.42
2022-11-26T12:22:37.811Z,33.15
2022-11-26T12:25:12.782Z,35.03
2022-11-26T12:27:42.704Z,28.85
2022-11-26T12:30:14.170Z,29.15
2022-11-26T12:33:07.838Z,26.55
2022-11-26T12:35:35.590Z,27.75
2022-11-26T12:38:13.836Z,26.85
2022-11-26T12:40:48.862Z,28.83
2022-11-26T12:43:31.100Z,27.77
2022-11-26T12:46:02.384Z,34.15
2022-11-26T12:48:32.648Z,40.47
2022-11-26T12:51:00.370Z,32.25
2022-11-26T12:53:39.737Z,33.58
2022-11-26T12:56:14.741Z,28.33
2022-11-26T12:58:45.538Z,34.95
2022-11-26T13:01:12.647Z,30.25
2022-11-26T13:03:39.954Z,42.00
2022-11-26T13:06:25.932Z,51.33
2022-11-26T13:08:53.033Z,60.13
2022-11-26T13:11:20.093Z,37.90
2022-11-26T13:13:58.303Z,68.50
2022-11-26T13:16:34.885Z,51.83
2022-11-26T13:19:06.854Z,50.85
2022-11-26T13:21:52.893Z,82.60
2022-11-26T13:24:19.961Z,44.13
2022-11-26T13:26:54.505Z,52.30
2022-11-26T13:29:30.797Z,36.40
2022-11-26T13:32:09.847Z,48.70
2022-11-26T13:34:51.869Z,58.22
2022-11-26T13:37:21.189Z,47.10
2022-11-26T13:40:11.596Z,47.33
2022-11-26T13:42:57.155Z,43.42
2022-11-26T13:45:59.816Z,41.97
2022-11-26T13:48:32.627Z,34.65
2022-11-26T13:51:01.454Z,36.00
2022-11-26T13:53:32.142Z,37.58
2022-11-26T13:56:00.541Z,36.95
2022-11-26T13:58:29.059Z,33.67
2022-11-26T14:00:56.247Z,48.78
2022-11-26T14:03:42.316Z,54.20
2022-11-26T14:06:09.505Z,66.15
2022-11-26T14:08:36.609Z,41.65
2022-11-26T14:11:03.729Z,43.97
2022-11-26T14:13:30.744Z,47.13
2022-11-26T14:15:59.032Z,40.35
2022-11-26T14:18:44.916Z,44.05
2022-11-26T14:21:12.227Z,54.67
2022-11-26T14:23:42.792Z,44.65
2022-11-26T14:28:36.934Z,51.40
2022-11-26T14:31:19.074Z,63.00
2022-11-26T14:33:46.615Z,55.03
2022-11-26T14:36:23.609Z,61.50
2022-11-26T14:39:09.525Z,59.45
2022-11-26T14:42:00.511Z,60.55
2022-11-26T14:44:31.194Z,51.08
2022-11-26T14:47:01.961Z,59.78
2022-11-26T14:49:58.509Z,66.30
2022-11-26T14:52:26.824Z,59.10
2022-11-26T14:54:54.591Z,59.97
2022-11-26T14:57:25.700Z,59.42
2022-11-26T14:59:59.793Z,54.95
2022-11-26T15:02:27.442Z,47.30
2022-11-26T15:04:58.657Z,58.58
2022-11-26T15:07:26.104Z,53.63
2022-11-26T15:10:03.212Z,54.83
2022-11-26T15:12:30.358Z,57.15
2022-11-26T15:14:58.852Z,58.63
2022-11-26T15:17:26.579Z,63.00
2022-11-26T15:19:53.748Z,61.42
2022-11-26T15:22:25.777Z,55.17
2022-11-26T15:24:52.927Z,61.05
2022-11-26T15:27:30.121Z,61.53
2022-11-26T15:29:57.264Z,65.15
2022-11-26T15:32:30.956Z,67.25
2022-11-26T15:34:59.499Z,61.10
2022-11-26T15:37:28.463Z,71.72
2022-11-26T15:40:14.407Z,65.90
2022-11-26T15:42:41.447Z,71.13
2022-11-26T15:45:14.028Z,55.58
2022-11-26T15:47:41.044Z,61.35
2022-11-26T15:50:24.234Z,70.88
2022-11-26T15:52:51.267Z,65.05
2022-11-26T15:55:22.992Z,67.22
2022-11-26T15:57:50.600Z,70.93
2022-11-26T16:00:24.497Z,71.07
2022-11-26T16:02:52.293Z,71.20
2022-11-26T16:05:24.058Z,68.25
2022-11-26T16:07:56.670Z,84.78
2022-11-26T16:10:25.732Z,78.55
2022-11-26T16:13:11.485Z,79.20
2022-11-26T16:15:45.618Z,76.03
2022-11-26T16:18:19.483Z,85.03
2022-11-26T16:20:46.601Z,71.47
2022-11-26T16:23:25.373Z,78.93
2022-11-26T16:26:11.149Z,91.63
2022-11-26T16:28:38.249Z,79.55
2022-11-26T16:31:05.379Z,79.53
2022-11-26T16:33:32.510Z,122.25
2022-11-26T16:35:59.685Z,88.15
2022-11-26T16:38:27.074Z,96.07
2022-11-26T16:40:54.245Z,118.90
2022-11-26T16:43:21.408Z,91.05
2022-11-26T16:45:48.694Z,81.80
2022-11-26T16:48:25.665Z,85.85
2022-11-26T16:50:53.569Z,93.57
2022-11-26T16:53:22.981Z,81.70
2022-11-26T16:55:50.180Z,80.30
2022-11-26T16:58:22.796Z,81.40
2022-11-26T17:00:51.087Z,86.47
2022-11-26T17:03:18.218Z,81.05
2022-11-26T17:05:45.387Z,96.88
2022-11-26T17:08:12.567Z,86.18
2022-11-26T17:10:39.751Z,86.63
2022-11-26T17:13:13.199Z,97.00
2022-11-26T17:15:40.274Z,90.28
2022-11-26T17:18:33.689Z,93.18
2022-11-26T17:21:01.085Z,89.82
2022-11-26T17:23:28.290Z,106.32
2022-11-26T17:25:55.506Z,116.25
2022-11-26T17:28:23.238Z,113.85
2022-11-26T17:30:50.781Z,107.95
2022-11-26T17:33:18.942Z,109.88
2022-11-26T17:35:46.376Z,102.68
2022-11-26T17:38:17.383Z,100.45
2022-11-26T17:40:44.620Z,99.20
2022-11-26T17:43:11.685Z,92.78
2022-11-26T17:45:38.827Z,87.57
2022-11-26T17:48:06.017Z,82.22
2022-11-26T17:50:33.366Z,68.78
2022-11-26T17:53:00.392Z,64.68
2022-11-26T17:55:27.661Z,73.90
2022-11-26T17:57:55.353Z,57.95
2022-11-26T18:00:23.554Z,65.80
2022-11-26T18:02:50.776Z,72.10
2022-11-26T18:05:17.962Z,66.63
2022-11-26T18:07:45.115Z,71.32
2022-11-26T18:10:13.642Z,75.25
2022-11-26T18:12:40.827Z,64.50
2022-11-26T18:15:08.281Z,64.80
2022-11-26T18:17:35.353Z,62.33
2022-11-26T18:20:02.390Z,65.63
2022-11-26T18:22:29.558Z,66.97
2022-11-26T18:24:58.239Z,61.97
2022-11-26T18:27:26.655Z,60.67
2022-11-26T18:29:53.742Z,57.70
2022-11-26T18:32:20.947Z,74.93
2022-11-26T18:34:50.407Z,65.28
2022-11-26T18:37:17.511Z,48.15
2022-11-26T18:39:44.627Z,50.90
2022-11-26T18:44:58.851Z,52.28
2022-11-26T18:47:25.990Z,42.72
2022-11-26T18:49:53.202Z,48.05
2022-11-26T18:52:20.238Z,48.78
2022-11-26T18:54:47.348Z,39.03
2022-11-26T18:57:14.488Z,40.58
2022-11-26T18:59:41.950Z,38.45
2022-11-26T19:02:10.355Z,41.63
2022-11-26T19:04:38.827Z,40.05
2022-11-26T19:07:06.075Z,43.53
2022-11-26T19:09:33.106Z,42.13
2022-11-26T19:12:00.241Z,40.47
2022-11-26T19:14:27.319Z,37.78
2022-11-26T19:16:54.416Z,44.47
2022-11-26T19:19:21.891Z,39.65
2022-11-26T19:21:50.229Z,37.60
2022-11-26T19:24:17.295Z,36.05
2022-11-26T19:26:44.403Z,39.83
2022-11-26T19:29:11.867Z,47.10
2022-11-26T19:31:39.707Z,42.42
2022-11-26T19:34:09.951Z,35.80
2022-11-26T19:36:37.283Z,34.85
2022-11-26T19:39:04.824Z,32.03
2022-11-26T19:41:31.918Z,30.35
2022-11-26T19:44:00.387Z,30.92
2022-11-26T19:46:27.684Z,30.15
2022-11-26T19:48:55.453Z,28.67
2022-11-26T19:51:22.864Z,27.85
2022-11-26T19:53:50.545Z,25.50
2022-11-26T19:56:18.562Z,23.40
2022-11-26T19:58:45.750Z,30.60
2022-11-26T20:01:13.569Z,31.98
2022-11-26T20:03:40.731Z,41.15
2022-11-26T20:06:08.855Z,25.38
2022-11-26T20:08:37.639Z,26.38
2022-11-26T20:11:05.390Z,39.72
2022-11-26T20:13:33.463Z,29.65
2022-11-26T20:16:01.180Z,26.05
2022-11-26T20:18:28.304Z,33.60
2022-11-26T20:20:58.986Z,27.65
2022-11-26T20:23:26.029Z,29.05
2022-11-26T20:25:53.095Z,33.97
2022-11-26T20:28:20.143Z,30.70
2022-11-26T20:30:47.427Z,38.65
2022-11-26T20:33:16.102Z,32.03
2022-11-26T20:35:43.502Z,28.30
2022-11-26T20:38:10.599Z,35.67
2022-11-26T20:40:40.889Z,28.42
2022-11-26T20:43:07.978Z,31.45
2022-11-26T20:45:35.065Z,42.47
2022-11-26T20:48:02.143Z,28.65
2022-11-26T20:50:29.353Z,34.95
2022-11-26T20:52:56.453Z,36.53
2022-11-26T20:55:25.064Z,31.15
2022-11-26T20:57:52.147Z,34.70
2022-11-26T21:00:23.549Z,36.03
2022-11-26T21:02:53.330Z,30.00
2022-11-26T21:05:21.490Z,38.22
2022-11-26T21:07:48.715Z,34.92
2022-11-26T21:10:16.321Z,34.80
2022-11-26T21:12:43.376Z,39.90
2022-11-26T21:15:11.333Z,32.30
2022-11-26T21:17:38.477Z,34.08
2022-11-26T21:20:06.285Z,35.08
2022-11-26T21:22:33.320Z,39.53
2022-11-26T21:25:00.383Z,36.60
2022-11-26T21:27:27.414Z,36.53
2022-11-26T21:29:54.659Z,39.20
2022-11-26T21:32:21.926Z,33.72
2022-11-26T21:34:49.024Z,36.05
2022-11-26T21:37:16.113Z,38.05
2022-11-26T21:39:43.139Z,33.05
2022-11-26T21:42:10.162Z,38.67
2022-11-26T21:44:37.184Z,43.03
2022-11-26T21:47:04.347Z,39.83
2022-11-26T21:49:34.531Z,35.47
2022-11-26T21:52:01.602Z,41.20
2022-11-26T21:54:28.807Z,39.88
2022-11-26T21:56:55.840Z,35.88
2022-11-26T21:59:22.987Z,40.42
2022-11-26T22:01:50.124Z,44.10
2022-11-26T22:04:18.386Z,43.92
2022-11-26T22:06:46.212Z,37.72
2022-11-26T22:09:13.513Z,44.50
2022-11-26T22:11:41.052Z,36.15
2022-11-26T22:14:08.213Z,31.45
2022-11-26T22:16:35.461Z,34.17
2022-11-26T22:19:02.654Z,33.78
2022-11-26T22:21:30.948Z,27.88
2022-11-26T22:23:58.180Z,32.63
2022-11-26T22:26:25.430Z,28.75
2022-11-26T22:28:52.590Z,35.22
2022-11-26T22:31:23.510Z,31.35
2022-11-26T22:33:50.811Z,31.40
2022-11-26T22:36:17.905Z,31.20
2022-11-26T22:38:45.027Z,24.25
2022-11-26T22:41:13.017Z,25.90
2022-11-26T22:43:40.140Z,26.25
2022-11-26T22:46:07.983Z,23.55
2022-11-26T22:48:35.154Z,21.98
2022-11-26T22:51:02.265Z,21.52
2022-11-26T22:53:31.474Z,23.85
2022-11-26T22:55:59.029Z,24.92
2022-11-26T22:58:26.519Z,25.63
2022-11-26T23:00:57.251Z,25.63
2022-11-26T23:03:24.534Z,29.73
2022-11-26T23:05:51.768Z,22.02
2022-11-26T23:08:18.894Z,26.88
2022-11-26T23:10:46.033Z,31.42
2022-11-26T23:13:13.289Z,23.83
2022-11-26T23:15:44.554Z,26.77
2022-11-26T23:18:12.223Z,21.50
2022-11-26T23:20:39.275Z,27.33
2022-11-26T23:23:06.393Z,25.20
2022-11-26T23:25:33.407Z,31.08
2022-11-26T23:28:00.474Z,27.60
2022-11-26T23:30:27.530Z,26.73
2022-11-26T23:32:54.610Z,23.58
2022-11-26T23:35:21.754Z,29.05
2022-11-26T23:37:48.852Z,30.30
2022-11-26T23:40:16.007Z,29.20
2022-11-26T23:42:43.095Z,27.25
2022-11-26T23:45:10.250Z,28.00
2022-11-26T23:47:39.702Z,23.65
2022-11-26T23:50:07.157Z,33.60
2022-11-26T23:52:34.254Z,22.83
2022-11-26T23:55:01.320Z,28.23
2022-11-26T23:57:28.408Z,24.52
2022-11-26T23:59:55.445Z,24.58
